Time;durP1;ratioP1;P1;durP2;ratioP2;P2;SDS_P1;SDS_P2;PMS_P1;PMS_P2;Temp;Humidity;BMP_temperature;BMP_pressure;BME280_temperature;BME280_humidity;BME280_pressure;Samples;Min_cycle;Max_cycle;Signal;HPM_P1;HPM_P2
2022/07/05 00:00:06;;;;;;;5.90;3.70;;;15.80;99.90;;;;;;5112323;28;20035;-50
2022/07/05 00:02:32;;;;;;;5.38;3.42;;;15.70;99.90;;;;;;5113938;28;20436;-50
2022/07/05 00:04:58;;;;;;;6.70;3.60;;;15.70;99.90;;;;;;5113853;28;20040;-49
2022/07/05 00:07:23;;;;;;;5.35;3.65;;;15.70;99.90;;;;;;5113608;28;20055;-50
2022/07/05 00:09:52;;;;;;;6.32;3.65;;;15.70;99.90;;;;;;5113256;28;20139;-51
2022/07/05 00:12:23;;;;;;;5.93;3.85;;;15.60;99.90;;;;;;5095707;28;20097;-48
2022/07/05 00:14:49;;;;;;;5.38;4.05;;;15.60;99.90;;;;;;5131692;27;20043;-51
2022/07/05 00:17:14;;;;;;;5.90;3.78;;;15.60;99.90;;;;;;5133889;27;20043;-49
2022/07/05 00:19:41;;;;;;;7.22;4.20;;;15.60;99.90;;;;;;5134197;27;20039;-49
2022/07/05 00:22:06;;;;;;;7.53;4.10;;;15.50;99.90;;;;;;5133490;27;20092;-49
2022/07/05 00:24:32;;;;;;;6.47;4.47;;;15.50;99.90;;;;;;5134092;27;20435;-50
2022/07/05 00:26:58;;;;;;;7.30;4.32;;;15.50;99.90;;;;;;5133960;27;20114;-51
2022/07/05 00:29:24;;;;;;;5.65;4.32;;;15.50;99.90;;;;;;5133837;27;20562;-48
2022/07/05 00:31:50;;;;;;;5.82;4.63;;;15.50;99.90;;;;;;5133535;27;20047;-51
2022/07/05 00:34:15;;;;;;;6.05;4.38;;;15.40;99.90;;;;;;5133990;27;20074;-51
2022/07/05 00:36:42;;;;;;;6.45;4.35;;;15.30;99.90;;;;;;5108238;27;20086;-47
2022/07/05 00:39:08;;;;;;;4.90;4.10;;;15.30;99.90;;;;;;5115312;27;20035;-47
2022/07/05 00:41:34;;;;;;;6.85;4.00;;;15.30;99.90;;;;;;5133305;27;20043;-47
2022/07/05 00:44:10;;;;;;;5.75;4.15;;;15.20;99.90;;;;;;5118978;27;20032;-51
2022/07/05 00:46:37;;;;;;;6.13;4.38;;;15.20;99.90;;;;;;5113160;28;20482;-51
2022/07/05 00:49:05;;;;;;;7.40;4.55;;;15.10;99.90;;;;;;5113124;27;20027;-48
2022/07/05 00:51:32;;;;;;;8.73;4.55;;;15.00;99.90;;;;;;5131648;27;20164;-52
2022/07/05 00:53:59;;;;;;;8.18;4.90;;;15.00;99.90;;;;;;5133511;27;20039;-50
2022/07/05 00:56:25;;;;;;;5.45;4.43;;;15.00;99.90;;;;;;5112204;28;20118;-48
2022/07/05 00:58:51;;;;;;;6.50;4.90;;;15.00;99.90;;;;;;5112905;28;20110;-51
2022/07/05 01:01:17;;;;;;;9.10;5.40;;;14.90;99.90;;;;;;5112739;28;20168;-47
2022/07/05 01:03:44;;;;;;;8.20;5.03;;;14.90;99.90;;;;;;5112943;28;20498;-51
2022/07/05 01:06:12;;;;;;;6.50;4.63;;;14.90;99.90;;;;;;5112610;28;20127;-52
2022/07/05 01:08:39;;;;;;;6.30;4.78;;;14.80;99.90;;;;;;5094980;28;20107;-48
2022/07/05 01:11:06;;;;;;;9.15;5.07;;;14.80;99.90;;;;;;5112672;28;20031;-49
2022/07/05 01:13:33;;;;;;;8.75;5.20;;;14.80;99.90;;;;;;5094189;28;20040;-50
2022/07/05 01:15:59;;;;;;;6.07;4.72;;;14.70;99.90;;;;;;5094306;28;20050;-48
2022/07/05 01:18:25;;;;;;;10.25;5.00;;;14.70;99.90;;;;;;5112676;28;20414;-51
2022/07/05 01:20:52;;;;;;;6.45;4.88;;;14.70;99.90;;;;;;5112046;28;20151;-48
2022/07/05 01:23:18;;;;;;;5.50;4.57;;;14.70;99.90;;;;;;5112192;27;20446;-49
2022/07/05 01:25:47;;;;;;;7.00;5.07;;;14.60;99.90;;;;;;5112247;27;20371;-51
2022/07/05 01:28:14;;;;;;;7.53;4.75;;;14.60;99.90;;;;;;5093853;28;20070;-51
2022/07/05 01:30:42;;;;;;;6.07;4.60;;;14.60;99.90;;;;;;5112212;28;20035;-51
2022/07/05 01:33:08;;;;;;;7.82;4.88;;;14.60;99.90;;;;;;5112258;28;20059;-51
2022/07/05 01:35:35;;;;;;;6.30;5.03;;;14.50;99.90;;;;;;5112212;28;20046;-52
2022/07/05 01:38:01;;;;;;;7.00;5.10;;;14.50;99.90;;;;;;5093893;28;20085;-49
2022/07/05 01:40:27;;;;;;;7.32;5.07;;;14.50;99.90;;;;;;5123154;27;20031;-47
2022/07/05 01:42:53;;;;;;;6.32;4.90;;;14.50;99.90;;;;;;5093549;28;20062;-49
2022/07/05 01:48:07;;;;;;;;;;;14.50;99.90;;;;;;5112658;28;20546;-52
2022/07/05 01:50:36;;;;;;;6.63;5.07;;;14.40;99.90;;;;;;5111505;28;20339;-47
2022/07/05 01:53:04;;;;;;;6.38;5.00;;;14.30;99.90;;;;;;5111858;28;20466;-48
2022/07/05 01:55:30;;;;;;;6.30;5.45;;;14.30;99.90;;;;;;5111555;28;20031;-49
2022/07/05 01:57:56;;;;;;;7.38;5.70;;;14.30;99.90;;;;;;5111645;28;20054;-50
2022/07/05 02:00:22;;;;;;;7.13;5.20;;;14.30;99.90;;;;;;5111483;28;20043;-47
2022/07/05 02:02:49;;;;;;;7.00;5.47;;;14.30;99.90;;;;;;5111724;27;20112;-51
2022/07/05 02:05:15;;;;;;;9.43;5.45;;;14.20;99.90;;;;;;5111701;28;20039;-48
2022/07/05 02:07:47;;;;;;;7.75;5.18;;;14.20;99.90;;;;;;5111188;28;20062;-48
2022/07/05 02:10:13;;;;;;;7.88;5.38;;;14.10;99.90;;;;;;5111592;28;20035;-49
2022/07/05 02:12:39;;;;;;;9.18;5.72;;;14.10;99.90;;;;;;5111601;28;20324;-49
2022/07/05 02:15:05;;;;;;;7.55;5.07;;;14.00;99.90;;;;;;5111688;28;20466;-52
2022/07/05 02:17:31;;;;;;;7.50;5.32;;;14.00;99.90;;;;;;5111357;28;20375;-52
2022/07/05 02:19:57;;;;;;;9.25;5.65;;;13.90;99.90;;;;;;5111342;28;20118;-48
2022/07/05 02:22:23;;;;;;;6.38;5.68;;;13.80;99.90;;;;;;5110995;28;20086;-49
2022/07/05 02:24:49;;;;;;;7.18;5.40;;;13.80;99.90;;;;;;5112776;28;20035;-52
2022/07/05 02:27:15;;;;;;;6.55;5.35;;;13.80;99.90;;;;;;5131574;27;20031;-51
2022/07/05 02:29:41;;;;;;;7.25;5.40;;;13.70;99.90;;;;;;5131706;27;20062;-47
2022/07/05 02:32:07;;;;;;;7.32;5.50;;;13.70;99.90;;;;;;5112906;27;20065;-48
2022/07/05 02:34:33;;;;;;;6.90;5.60;;;13.80;99.90;;;;;;5112735;28;20047;-49
2022/07/05 02:36:58;;;;;;;9.50;5.80;;;13.70;99.90;;;;;;5109010;28;20043;-47
2022/07/05 02:39:24;;;;;;;7.35;5.20;;;13.70;99.90;;;;;;5111196;28;20385;-51
2022/07/05 02:41:50;;;;;;;8.75;5.88;;;13.70;99.90;;;;;;5111089;28;20069;-50
2022/07/05 02:44:15;;;;;;;8.00;6.05;;;13.70;99.90;;;;;;5111088;28;20108;-49
2022/07/05 02:46:41;;;;;;;7.57;6.03;;;13.70;99.90;;;;;;5111259;28;20031;-51
2022/07/05 02:49:06;;;;;;;8.55;6.13;;;13.70;99.90;;;;;;5110947;28;20180;-50
2022/07/05 02:51:32;;;;;;;8.25;6.50;;;13.60;99.90;;;;;;5110422;28;20435;-48
2022/07/05 02:53:58;;;;;;;8.35;6.35;;;13.60;99.90;;;;;;5092905;28;20039;-48
2022/07/05 02:56:23;;;;;;;8.70;6.50;;;13.60;99.90;;;;;;5110474;28;20042;-50
2022/07/05 02:58:49;;;;;;;8.88;6.50;;;13.50;99.90;;;;;;5110921;28;20039;-49
2022/07/05 03:01:15;;;;;;;9.98;6.80;;;13.70;99.90;;;;;;5110654;28;20044;-47
2022/07/05 03:03:40;;;;;;;7.35;6.10;;;13.70;99.90;;;;;;5092558;28;20038;-48
2022/07/05 03:06:06;;;;;;;7.10;6.10;;;13.70;99.90;;;;;;5110547;28;20544;-49
2022/07/05 03:08:32;;;;;;;6.97;6.13;;;13.60;99.90;;;;;;5110872;28;20054;-49
2022/07/05 03:10:58;;;;;;;9.05;6.35;;;13.60;99.90;;;;;;5110588;28;20046;-50
2022/07/05 03:13:23;;;;;;;7.60;6.03;;;13.60;99.90;;;;;;5129969;28;20047;-47
2022/07/05 03:15:49;;;;;;;9.57;6.85;;;13.60;99.90;;;;;;5131026;28;20038;-48
2022/07/05 03:18:15;;;;;;;8.48;6.35;;;13.60;99.90;;;;;;5131127;28;20031;-48
2022/07/05 03:20:40;;;;;;;10.13;7.05;;;13.60;99.90;;;;;;5133011;27;20042;-52
2022/07/05 03:23:06;;;;;;;8.65;7.25;;;13.50;99.90;;;;;;5116338;27;20118;-49
2022/07/05 03:25:32;;;;;;;9.10;6.60;;;13.60;99.90;;;;;;5135252;27;20100;-49
2022/07/05 03:27:58;;;;;;;10.40;6.50;;;13.60;99.90;;;;;;5134868;27;20080;-48
2022/07/05 03:30:24;;;;;;;9.18;6.90;;;13.60;99.90;;;;;;5135129;27;20036;-49
2022/07/05 03:32:50;;;;;;;11.00;7.03;;;13.50;99.90;;;;;;5089107;28;20134;-50
2022/07/05 03:35:16;;;;;;;8.27;7.15;;;13.60;99.90;;;;;;5096063;27;20040;-51
2022/07/05 03:37:41;;;;;;;9.57;6.90;;;13.60;99.90;;;;;;5095888;28;20395;-49
2022/07/05 03:40:07;;;;;;;8.95;7.05;;;13.70;99.90;;;;;;5079283;28;20181;-49
2022/07/05 03:42:35;;;;;;;10.02;7.40;;;13.60;99.90;;;;;;5114109;27;20526;-51
2022/07/05 03:45:01;;;;;;;9.45;7.60;;;13.60;99.90;;;;;;5112903;28;20039;-50
2022/07/05 03:47:27;;;;;;;9.50;7.28;;;13.70;99.90;;;;;;5114272;28;20023;-48
2022/07/05 03:49:54;;;;;;;8.30;6.97;;;13.70;99.90;;;;;;5114185;28;20118;-48
2022/07/05 03:52:19;;;;;;;8.35;7.40;;;13.70;99.90;;;;;;5112496;28;20085;-50
2022/07/05 03:54:45;;;;;;;8.10;7.00;;;13.90;99.90;;;;;;5113796;28;20071;-48
2022/07/05 03:57:12;;;;;;;10.88;7.03;;;13.80;99.90;;;;;;5114203;28;20040;-48
2022/07/05 03:59:39;;;;;;;8.80;6.75;;;13.90;99.90;;;;;;5114065;28;20042;-50
2022/07/05 04:02:04;;;;;;;9.23;7.00;;;13.90;99.90;;;;;;5113779;28;20038;-51
2022/07/05 04:04:30;;;;;;;10.50;7.13;;;13.90;99.90;;;;;;5113957;28;20035;-49
2022/07/05 04:06:55;;;;;;;9.80;6.57;;;14.00;99.90;;;;;;5113512;27;20059;-49
2022/07/05 04:09:21;;;;;;;9.50;6.47;;;13.90;99.90;;;;;;5113601;28;20115;-48
2022/07/05 04:11:47;;;;;;;8.98;7.13;;;13.80;99.90;;;;;;5095173;28;20050;-50
2022/07/05 04:14:13;;;;;;;9.52;7.05;;;13.80;99.90;;;;;;5112068;28;20070;-50
2022/07/05 04:16:38;;;;;;;9.07;6.78;;;13.80;99.90;;;;;;5113793;28;20410;-50
2022/07/05 04:19:04;;;;;;;9.70;7.00;;;13.90;99.90;;;;;;5113876;28;20028;-51
2022/07/05 04:21:30;;;;;;;8.57;6.90;;;14.00;99.90;;;;;;5112988;28;20070;-47
2022/07/05 04:23:55;;;;;;;12.30;7.05;;;14.10;99.90;;;;;;5095118;28;20122;-48
2022/07/05 04:26:21;;;;;;;10.57;6.95;;;14.10;99.90;;;;;;5113520;28;20034;-51
2022/07/05 04:28:47;;;;;;;10.65;7.68;;;14.00;99.90;;;;;;5118466;27;20031;-49
2022/07/05 04:31:13;;;;;;;9.82;7.53;;;14.00;99.90;;;;;;5133856;27;20565;-46
2022/07/05 04:33:39;;;;;;;9.07;6.90;;;14.10;99.90;;;;;;5134024;27;20706;-49
2022/07/05 04:36:05;;;;;;;9.32;7.82;;;14.20;99.90;;;;;;5115559;27;20041;-48
2022/07/05 04:38:31;;;;;;;12.45;7.88;;;14.10;99.90;;;;;;5115345;27;20113;-52
2022/07/05 04:40:57;;;;;;;10.23;7.47;;;14.20;99.90;;;;;;5133901;27;20035;-52
2022/07/05 04:43:22;;;;;;;12.43;7.75;;;14.30;99.90;;;;;;5133645;27;20031;-49
2022/07/05 04:45:48;;;;;;;10.25;7.15;;;14.30;99.90;;;;;;5133474;27;20068;-48
2022/07/05 04:48:14;;;;;;;11.30;7.47;;;14.30;99.90;;;;;;5133936;27;20069;-49
2022/07/05 04:50:39;;;;;;;10.68;8.20;;;14.40;99.90;;;;;;5133342;27;20035;-46
2022/07/05 04:53:05;;;;;;;9.55;7.40;;;14.40;99.90;;;;;;5115961;27;20169;-47
2022/07/05 04:55:31;;;;;;;12.32;7.60;;;14.50;99.90;;;;;;5113250;28;20482;-50
2022/07/05 04:57:56;;;;;;;11.07;7.55;;;14.50;99.90;;;;;;5113227;28;20543;-49
2022/07/05 05:00:22;;;;;;;11.13;8.38;;;14.50;99.90;;;;;;5113003;28;20038;-52
2022/07/05 05:02:48;;;;;;;11.48;8.30;;;14.50;99.90;;;;;;5113021;28;20035;-48
2022/07/05 05:05:13;;;;;;;9.52;7.70;;;14.60;99.90;;;;;;5113020;28;20569;-48
2022/07/05 05:07:43;;;;;;;10.23;8.13;;;14.60;99.90;;;;;;5112553;28;20048;-47
2022/07/05 05:10:09;;;;;;;11.05;8.18;;;14.70;99.90;;;;;;5112930;28;20486;-49
2022/07/05 05:12:35;;;;;;;9.32;8.32;;;14.70;99.90;;;;;;5112748;28;20101;-51
2022/07/05 05:15:00;;;;;;;10.82;8.18;;;14.80;99.90;;;;;;5094103;28;20052;-51
2022/07/05 05:17:34;;;;;;;11.10;8.50;;;14.90;99.90;;;;;;5112596;28;20128;-50
2022/07/05 05:20:00;;;;;;;9.80;8.80;;;15.00;99.90;;;;;;5112782;28;20069;-48
2022/07/05 05:22:25;;;;;;;11.65;8.45;;;15.00;99.90;;;;;;5112289;27;20108;-50
2022/07/05 05:24:51;;;;;;;11.18;9.35;;;15.00;99.90;;;;;;5130970;27;20031;-49
2022/07/05 05:27:17;;;;;;;11.48;9.20;;;15.00;99.90;;;;;;5132733;27;20133;-49
2022/07/05 05:29:42;;;;;;;11.90;8.90;;;15.00;99.90;;;;;;5132649;27;20039;-50
2022/07/05 05:32:08;;;;;;;13.75;8.60;;;15.00;99.90;;;;;;5133007;27;20039;-50
2022/07/05 05:34:34;;;;;;;10.27;8.38;;;15.10;99.90;;;;;;5131173;27;20039;-51
2022/07/05 05:36:59;;;;;;;10.88;8.50;;;15.20;99.90;;;;;;5112298;27;20158;-50
2022/07/05 05:39:25;;;;;;;11.77;8.40;;;15.30;99.90;;;;;;5112332;28;20724;-51
2022/07/05 05:41:50;;;;;;;12.48;8.10;;;15.20;99.90;;;;;;5112148;28;20592;-50
2022/07/05 05:44:16;;;;;;;9.82;7.70;;;15.40;99.90;;;;;;5111533;28;20036;-48
2022/07/05 05:46:42;;;;;;;10.55;7.63;;;15.50;99.90;;;;;;5093527;28;20051;-51
2022/07/05 05:49:07;;;;;;;10.57;7.10;;;15.50;99.90;;;;;;5110593;28;20367;-50
2022/07/05 05:51:33;;;;;;;9.70;6.95;;;15.60;99.90;;;;;;5111396;28;20363;-49
2022/07/05 05:53:58;;;;;;;11.50;6.93;;;15.60;99.90;;;;;;5112110;27;20123;-50
2022/07/05 05:56:26;;;;;;;11.60;6.47;;;15.70;99.90;;;;;;5111923;28;20487;-48
2022/07/05 05:58:52;;;;;;;9.15;6.30;;;15.60;99.90;;;;;;5111919;28;20043;-50
2022/07/05 06:01:18;;;;;;;10.45;6.93;;;15.70;99.90;;;;;;5111753;28;20065;-48
2022/07/05 06:03:43;;;;;;;9.25;6.68;;;15.80;99.90;;;;;;5111744;28;20087;-50
2022/07/05 06:06:09;;;;;;;8.93;6.55;;;15.90;99.90;;;;;;5111352;28;20079;-51
2022/07/05 06:08:35;;;;;;;9.10;6.18;;;16.00;99.90;;;;;;5111927;28;20051;-50
2022/07/05 06:11:04;;;;;;;9.77;6.47;;;16.00;99.90;;;;;;5111347;28;20040;-49
2022/07/05 06:13:30;;;;;;;10.45;7.38;;;16.20;99.90;;;;;;5111323;28;20046;-49
2022/07/05 06:15:56;;;;;;;9.23;6.63;;;16.20;99.90;;;;;;5111550;28;20039;-49
2022/07/05 06:18:22;;;;;;;8.70;6.47;;;16.30;99.90;;;;;;5110163;28;20123;-50
2022/07/05 06:20:47;;;;;;;6.63;5.40;;;16.50;99.90;;;;;;5111209;28;20533;-51
2022/07/05 06:23:13;;;;;;;7.13;5.03;;;16.60;99.90;;;;;;5111548;28;20122;-48
2022/07/05 06:25:40;;;;;;;6.05;3.30;;;16.60;99.90;;;;;;5107741;27;20497;-49
2022/07/05 06:28:07;;;;;;;4.82;3.00;;;16.70;99.90;;;;;;5109950;28;20054;-49
2022/07/05 06:30:36;;;;;;;8.23;3.15;;;16.80;99.90;;;;;;5111366;28;20036;-51
2022/07/05 06:33:02;;;;;;;6.38;2.58;;;16.80;99.90;;;;;;5092896;28;20035;-48
2022/07/05 06:35:28;;;;;;;3.88;1.83;;;17.00;99.90;;;;;;5110837;28;20100;-51
2022/07/05 06:37:58;;;;;;;6.60;1.65;;;17.10;99.90;;;;;;5111194;28;20470;-48
2022/07/05 06:40:29;;;;;;;5.57;1.55;;;17.10;99.90;;;;;;5109917;28;20039;-47
2022/07/05 06:42:58;;;;;;;6.20;1.60;;;17.30;99.90;;;;;;5111208;28;20632;-48
2022/07/05 06:45:24;;;;;;;5.75;1.38;;;17.40;99.90;;;;;;5111024;28;20031;-50
2022/07/05 06:47:58;;;;;;;4.68;1.30;;;17.40;99.90;;;;;;5111170;28;20028;-52
2022/07/05 06:50:28;;;;;;;5.13;1.35;;;17.50;99.90;;;;;;5111270;28;20688;-48
2022/07/05 06:52:54;;;;;;;3.10;1.00;;;17.60;99.90;;;;;;5110412;28;20048;-50
2022/07/05 06:55:20;;;;;;;4.28;1.20;;;17.80;99.90;;;;;;5112481;28;20480;-46
2022/07/05 06:57:46;;;;;;;5.97;1.10;;;17.70;99.90;;;;;;5115042;27;20123;-49
2022/07/05 07:00:13;;;;;;;4.57;1.30;;;17.80;99.90;;;;;;5109967;27;20115;-49
2022/07/05 07:02:39;;;;;;;3.30;0.98;;;17.70;99.90;;;;;;5114935;28;20085;-48
2022/07/05 07:05:05;;;;;;;3.25;1.02;;;17.70;99.90;;;;;;5101557;27;20570;-51
2022/07/05 07:10:17;;;;;;;3.42;1.15;;;17.80;99.90;;;;;;5101861;28;20031;-49
2022/07/05 07:12:42;;;;;;;3.50;1.00;;;17.90;99.90;;;;;;5102617;28;20056;-51
2022/07/05 07:15:08;;;;;;;4.00;1.00;;;18.00;99.90;;;;;;5102055;28;20043;-52
2022/07/05 07:17:34;;;;;;;5.68;1.10;;;17.90;99.90;;;;;;5102517;28;20034;-52
2022/07/05 07:20:00;;;;;;;4.25;1.00;;;17.90;99.90;;;;;;5100628;28;20039;-50
2022/07/05 07:22:26;;;;;;;3.10;0.75;;;17.80;99.90;;;;;;5101935;28;20035;-47
2022/07/05 07:24:52;;;;;;;3.88;0.90;;;17.80;99.90;;;;;;5102139;28;20044;-48
2022/07/05 07:27:18;;;;;;;3.00;0.80;;;18.00;99.90;;;;;;5100759;28;20498;-48
2022/07/05 07:29:44;;;;;;;3.45;1.02;;;17.90;99.90;;;;;;5102092;28;20063;-49
2022/07/05 07:32:10;;;;;;;2.38;0.90;;;18.00;99.90;;;;;;5100193;28;20043;-51
2022/07/05 07:34:36;;;;;;;4.10;0.90;;;17.90;99.90;;;;;;5093086;28;20112;-48
2022/07/05 07:37:03;;;;;;;5.07;0.80;;;18.10;99.90;;;;;;5100066;28;20391;-49
2022/07/05 07:39:31;;;;;;;3.00;1.00;;;18.20;99.90;;;;;;5100735;28;20038;-50
2022/07/05 07:41:57;;;;;;;8.02;1.15;;;18.40;99.90;;;;;;5099322;28;20071;-50
2022/07/05 07:44:23;;;;;;;9.20;1.02;;;18.40;99.90;;;;;;5100410;28;20027;-50
2022/07/05 07:46:48;;;;;;;3.60;0.80;;;18.50;99.90;;;;;;5100764;28;20061;-50
2022/07/05 07:49:14;;;;;;;2.83;0.90;;;18.50;99.90;;;;;;5100480;28;20030;-50
2022/07/05 07:51:40;;;;;;;4.97;0.95;;;18.60;99.90;;;;;;5098204;27;20038;-49
2022/07/05 07:54:06;;;;;;;5.95;1.13;;;18.70;99.90;;;;;;5096194;27;20075;-48
2022/07/05 07:56:32;;;;;;;5.70;1.10;;;18.50;99.90;;;;;;5096858;27;20140;-50
2022/07/05 07:58:58;;;;;;;5.10;1.00;;;18.30;99.90;;;;;;5097349;28;20043;-51
2022/07/05 08:01:24;;;;;;;2.22;0.75;;;18.20;99.90;;;;;;5096204;28;20036;-50
2022/07/05 08:03:50;;;;;;;4.70;0.98;;;18.20;99.90;;;;;;5100856;27;20115;-50
2022/07/05 08:06:15;;;;;;;3.70;0.77;;;18.30;99.90;;;;;;5099772;28;20135;-50
2022/07/05 08:08:44;;;;;;;4.95;1.08;;;18.50;99.90;;;;;;5100906;28;20039;-48
2022/07/05 08:11:12;;;;;;;3.75;0.80;;;18.60;99.90;;;;;;5101392;27;20110;-49
2022/07/05 08:13:40;;;;;;;5.43;1.10;;;18.70;99.90;;;;;;5099805;28;20119;-50
2022/07/05 08:16:07;;;;;;;5.53;0.70;;;18.80;99.90;;;;;;5100743;28;20406;-52
2022/07/05 08:21:32;;;;;;;4.15;0.80;;;18.90;99.90;;;;;;5100071;28;20051;-48
2022/07/05 08:24:08;;;;;;;3.55;0.77;;;18.80;99.90;;;;;;5098712;28;20070;-49
2022/07/05 08:26:34;;;;;;;3.35;0.98;;;18.80;99.90;;;;;;5100546;28;20489;-49
2022/07/05 08:29:01;;;;;;;5.13;0.80;;;18.70;99.90;;;;;;5079859;28;20110;-49
2022/07/05 08:31:31;;;;;;;3.40;1.05;;;18.70;99.90;;;;;;5100328;27;20082;-51
2022/07/05 08:33:58;;;;;;;4.13;0.80;;;18.70;99.90;;;;;;5099649;28;20032;-49
2022/07/05 08:36:23;;;;;;;2.45;0.70;;;19.00;99.90;;;;;;5097976;28;20063;-47
2022/07/05 08:38:49;;;;;;;6.43;0.95;;;19.20;99.90;;;;;;5099976;28;20070;-50
2022/07/05 08:41:18;;;;;;;2.65;0.70;;;18.90;99.90;;;;;;5100475;28;20028;-50
2022/07/05 08:43:46;;;;;;;2.63;0.68;;;18.80;99.90;;;;;;5098093;28;20036;-49
2022/07/05 08:46:13;;;;;;;3.90;0.65;;;19.00;99.90;;;;;;5081608;28;20074;-49
2022/07/05 08:48:44;;;;;;;4.88;1.23;;;19.20;99.90;;;;;;5099708;28;20039;-49
2022/07/05 08:51:21;;;;;;;3.00;0.70;;;19.20;99.90;;;;;;5099597;28;20035;-49
2022/07/05 08:53:47;;;;;;;4.18;0.80;;;19.10;99.90;;;;;;5080034;28;20043;-50
2022/07/05 08:56:14;;;;;;;2.22;0.60;;;19.50;99.90;;;;;;5099449;28;20028;-50
2022/07/05 08:58:40;;;;;;;3.42;0.80;;;19.30;99.90;;;;;;5099410;28;20027;-51
2022/07/05 09:01:08;;;;;;;4.28;0.70;;;19.10;99.90;;;;;;5098244;28;20462;-51
2022/07/05 09:03:45;;;;;;;5.22;1.08;;;19.10;99.90;;;;;;5098902;27;20498;-50
2022/07/05 09:06:15;;;;;;;5.88;0.90;;;19.40;99.90;;;;;;5080568;28;20404;-47
2022/07/05 09:08:41;;;;;;;3.42;0.90;;;19.80;99.90;;;;;;5097842;28;20042;-48
2022/07/05 09:11:10;;;;;;;5.07;0.90;;;20.00;99.90;;;;;;5097092;28;20044;-50
2022/07/05 09:13:38;;;;;;;5.82;0.90;;;20.40;99.90;;;;;;5097154;28;20114;-48
2022/07/05 09:16:04;;;;;;;3.85;0.80;;;20.60;99.90;;;;;;5096737;28;20435;-48
2022/07/05 09:18:56;;;;;;;3.13;0.70;;;20.40;99.90;;;;;;5096699;28;20139;-51
2022/07/05 09:21:23;;;;;;;2.38;0.80;;;20.50;99.90;;;;;;5096744;28;20624;-50
2022/07/05 09:24:03;;;;;;;2.50;0.65;;;20.50;99.90;;;;;;5096840;28;20410;-49
2022/07/05 09:26:39;;;;;;;2.83;0.68;;;20.20;99.90;;;;;;5077248;28;20039;-52
2022/07/05 09:29:14;;;;;;;3.35;0.77;;;20.30;99.90;;;;;;5097807;28;21932;-50
2022/07/05 09:31:42;;;;;;;3.88;0.60;;;20.50;99.90;;;;;;5077491;28;20079;-49
2022/07/05 09:34:15;;;;;;;2.13;0.65;;;20.80;99.90;;;;;;5097698;28;20035;-50
2022/07/05 09:36:58;;;;;;;2.20;0.60;;;21.00;99.90;;;;;;5079398;27;20059;-49
2022/07/05 09:39:29;;;;;;;7.63;0.75;;;21.30;99.90;;;;;;5097899;28;20027;-47
2022/07/05 09:42:11;;;;;;;3.53;0.70;;;21.00;99.90;;;;;;5098366;27;20409;-50
2022/07/05 09:44:47;;;;;;;3.33;0.90;;;20.80;99.90;;;;;;5098381;27;20475;-50
2022/07/05 09:47:17;;;;;;;2.42;0.73;;;20.70;99.90;;;;;;5099164;28;20143;-51
2022/07/05 09:49:51;;;;;;;4.13;1.17;;;20.20;99.90;;;;;;5098215;28;20043;-49
2022/07/05 09:52:37;;;;;;;4.93;1.00;;;20.30;99.90;;;;;;5098745;28;20131;-49
2022/07/05 09:55:07;;;;;;;3.45;0.90;;;20.50;99.90;;;;;;5099389;28;20057;-49
2022/07/05 09:57:35;;;;;;;4.95;1.52;;;21.00;99.90;;;;;;5099328;28;20071;-50
2022/07/05 10:00:04;;;;;;;6.40;1.10;;;21.10;99.90;;;;;;5099208;28;20039;-50
2022/07/05 10:02:45;;;;;;;3.20;0.80;;;21.00;99.90;;;;;;5098634;28;20043;-51
2022/07/05 10:05:18;;;;;;;3.10;1.10;;;21.10;99.90;;;;;;5098487;27;20034;-50
2022/07/05 10:07:50;;;;;;;3.63;1.40;;;21.20;99.90;;;;;;5098748;28;20056;-50
2022/07/05 10:10:18;;;;;;;3.58;0.93;;;20.90;99.90;;;;;;5099421;28;20475;-50
2022/07/05 10:12:46;;;;;;;3.50;0.95;;;20.90;99.90;;;;;;5095916;28;20043;-51
2022/07/05 10:15:14;;;;;;;2.83;1.05;;;21.20;99.90;;;;;;5096862;28;20479;-50
2022/07/05 10:17:45;;;;;;;3.03;0.70;;;20.80;99.90;;;;;;5097279;28;20035;-51
2022/07/05 10:20:19;;;;;;;4.53;0.70;;;20.40;99.90;;;;;;5097233;28;20466;-48
2022/07/05 10:22:46;;;;;;;4.93;0.80;;;20.20;99.90;;;;;;5097900;28;20156;-47
2022/07/05 10:25:13;;;;;;;7.65;0.93;;;20.60;99.90;;;;;;5099924;28;20764;-48
2022/07/05 10:27:39;;;;;;;2.42;0.68;;;20.70;99.90;;;;;;5082044;28;20032;-48
2022/07/05 10:30:07;;;;;;;4.32;1.00;;;20.60;99.90;;;;;;5097982;28;20483;-51
2022/07/05 10:32:35;;;;;;;4.03;0.95;;;20.40;99.90;;;;;;5095952;28;20044;-47
2022/07/05 10:35:03;;;;;;;3.92;0.93;;;20.30;99.90;;;;;;5087765;28;20405;-50
2022/07/05 10:37:30;;;;;;;4.55;0.93;;;20.20;99.90;;;;;;5089079;28;20044;-49
2022/07/05 10:39:58;;;;;;;3.33;1.10;;;20.30;99.90;;;;;;5096019;28;20339;-49
2022/07/05 10:42:26;;;;;;;3.35;0.80;;;20.50;99.90;;;;;;5076956;28;20051;-50
2022/07/05 10:44:51;;;;;;;4.18;1.00;;;20.90;99.90;;;;;;5095547;28;20035;-52
2022/07/05 10:47:18;;;;;;;4.10;0.82;;;20.90;99.90;;;;;;5096103;28;20043;-49
2022/07/05 10:50:00;;;;;;;4.95;1.33;;;21.00;99.90;;;;;;5096808;28;20395;-47
2022/07/05 10:52:26;;;;;;;4.10;0.90;;;20.80;99.90;;;;;;5095997;28;20050;-46
2022/07/05 10:55:16;;;;;;;5.35;1.20;;;20.50;99.90;;;;;;5092354;28;20048;-48
2022/07/05 10:57:42;;;;;;;4.15;0.80;;;20.20;99.90;;;;;;5088333;28;20047;-46
2022/07/05 11:00:09;;;;;;;4.45;0.80;;;20.00;99.90;;;;;;5091515;28;20371;-48
2022/07/05 11:02:35;;;;;;;3.92;0.82;;;19.80;99.90;;;;;;5085444;28;20039;-50
2022/07/05 11:05:02;;;;;;;4.93;0.80;;;19.60;99.90;;;;;;5089494;28;20032;-52
2022/07/05 11:07:57;;;;;;;3.60;0.90;;;19.80;99.90;;;;;;5074795;28;20636;-51
2022/07/05 11:10:22;;;;;;;3.92;0.80;;;19.70;99.90;;;;;;5090976;28;20039;-46
2022/07/05 11:12:48;;;;;;;3.33;0.80;;;19.70;99.90;;;;;;5090479;28;20035;-48
2022/07/05 11:15:14;;;;;;;3.90;0.93;;;19.80;99.90;;;;;;5091304;28;20043;-47
2022/07/05 11:17:39;;;;;;;3.90;0.80;;;19.70;99.90;;;;;;5090916;28;20031;-47
2022/07/05 11:20:12;;;;;;;4.28;1.00;;;20.20;99.90;;;;;;5091400;28;20664;-51
2022/07/05 11:22:41;;;;;;;3.60;0.80;;;20.30;99.90;;;;;;5070476;28;20047;-50
2022/07/05 11:25:10;;;;;;;4.03;0.80;;;20.60;99.90;;;;;;5090857;28;20387;-51
2022/07/05 11:27:36;;;;;;;3.05;0.88;;;20.70;99.90;;;;;;5090804;28;20059;-50
2022/07/05 11:30:03;;;;;;;4.90;1.10;;;20.50;99.90;;;;;;5091805;28;20078;-48
2022/07/05 11:32:28;;;;;;;5.05;1.05;;;21.00;99.90;;;;;;5088631;28;20044;-49
2022/07/05 11:35:10;;;;;;;3.63;0.90;;;21.50;99.90;;;;;;5089980;28;20123;-50
2022/07/05 11:38:09;;;;;;;5.60;1.02;;;21.50;99.90;;;;;;5071217;28;20077;-49
2022/07/05 11:40:37;;;;;;;4.80;0.93;;;21.80;99.90;;;;;;5088491;28;20039;-48
2022/07/05 11:43:06;;;;;;;3.90;0.57;;;21.60;99.90;;;;;;5073239;28;20074;-49
2022/07/05 11:45:32;;;;;;;3.40;0.90;;;21.00;99.90;;;;;;5092908;27;20063;-52
2022/07/05 11:47:58;;;;;;;2.08;0.70;;;20.80;99.90;;;;;;5096458;27;20055;-50
2022/07/05 11:50:42;;;;;;;3.40;1.02;;;21.20;99.90;;;;;;5076534;28;20575;-49
2022/07/05 11:53:11;;;;;;;2.65;0.63;;;21.40;99.90;;;;;;5095410;28;20144;-48
2022/07/05 11:55:37;;;;;;;4.43;0.90;;;21.50;99.90;;;;;;5095120;27;20039;-48
2022/07/05 11:58:03;;;;;;;3.67;0.75;;;21.30;99.40;;;;;;5094953;28;20497;-50
2022/07/05 12:00:40;;;;;;;3.10;0.63;;;21.60;98.90;;;;;;5094329;28;20059;-51
2022/07/05 12:03:13;;;;;;;2.95;0.60;;;21.60;98.30;;;;;;5093505;28;20059;-49
2022/07/05 12:05:40;;;;;;;4.85;1.00;;;21.80;98.60;;;;;;5076820;28;20032;-50
2022/07/05 12:08:06;;;;;;;2.17;0.50;;;22.20;98.00;;;;;;5092208;28;20212;-51
2022/07/05 12:13:16;;;;;;;2.45;0.50;;;21.60;97.10;;;;;;5098872;28;20039;-53
2022/07/05 12:15:42;;;;;;;2.85;0.60;;;22.10;98.20;;;;;;5098880;28;20038;-53
2022/07/05 12:18:09;;;;;;;2.10;0.50;;;22.10;97.10;;;;;;5098504;28;20089;-53
2022/07/05 12:20:39;;;;;;;2.60;0.63;;;22.30;97.70;;;;;;5099043;27;20105;-51
2022/07/05 12:23:05;;;;;;;3.72;0.40;;;22.50;95.90;;;;;;5097674;28;20040;-52
2022/07/05 12:25:33;;;;;;;1.75;0.50;;;22.30;95.30;;;;;;5098777;27;20043;-50
2022/07/05 12:28:00;;;;;;;4.07;0.50;;;22.60;96.50;;;;;;5093748;28;20038;-50
2022/07/05 12:30:30;;;;;;;2.30;0.70;;;22.70;96.60;;;;;;5096774;28;20032;-53
2022/07/05 12:33:05;;;;;;;1.52;0.43;;;22.80;96.40;;;;;;5095359;28;20490;-52
2022/07/05 12:35:44;;;;;;;3.53;0.68;;;23.30;95.90;;;;;;5098373;28;20040;-52
2022/07/05 12:38:18;;;;;;;3.42;0.60;;;23.10;95.40;;;;;;5099028;27;20059;-51
2022/07/05 12:40:46;;;;;;;2.65;0.43;;;23.10;94.80;;;;;;5098615;27;20036;-49
2022/07/05 12:43:14;;;;;;;4.38;0.77;;;22.80;94.60;;;;;;5091975;28;20055;-51
2022/07/05 12:45:43;;;;;;;1.52;0.30;;;23.00;94.70;;;;;;5092413;28;20148;-53
2022/07/05 12:48:10;;;;;;;2.67;0.40;;;22.80;94.60;;;;;;5077921;27;20046;-51
2022/07/05 12:50:45;;;;;;;3.38;0.50;;;22.90;94.30;;;;;;5098092;28;20038;-49
2022/07/05 12:59:03;;;;;;;2.08;0.50;;;23.00;94.40;;;;;;5082081;28;20107;-49
2022/07/05 13:01:36;;;;;;;2.97;0.63;;;22.60;94.70;;;;;;5100897;27;20040;-51
2022/07/05 13:04:04;;;;;;;1.80;0.47;;;23.20;95.80;;;;;;5100900;27;20118;-49